Time;durP1;ratioP1;P1;durP2;ratioP2;P2;SDS_P1;SDS_P2;PMS_P1;PMS_P2;Temp;Humidity;BMP_temperature;BMP_pressure;BME280_temperature;BME280_humidity;BME280_pressure;Samples;Min_cycle;Max_cycle;Signal;HPM_P1;HPM_P2
2023/04/29 00:01:26;0.00;0.00;0.62;0.00;0.00;0.62;3.33;2.73;;;25.10;22.60;;;;;;2260742;61;20360;-64
2023/04/29 00:04:10;0.00;0.00;0.62;0.00;0.00;0.62;3.43;2.90;;;25.10;22.30;;;;;;2259800;61;20443;-64
2023/04/29 00:06:55;0.00;0.00;0.62;0.00;0.00;0.62;2.83;2.50;;;25.20;22.40;;;;;;2260539;61;20408;-65
2023/04/29 00:09:41;0.00;0.00;0.62;0.00;0.00;0.62;3.00;2.50;;;25.20;22.40;;;;;;2260176;61;20431;-64
2023/04/29 00:12:29;0.00;0.00;0.62;0.00;0.00;0.62;3.37;2.87;;;25.20;22.40;;;;;;2259839;61;20380;-64
2023/04/29 00:15:14;0.00;0.00;0.62;0.00;0.00;0.62;3.97;3.10;;;25.20;22.40;;;;;;2260652;61;20377;-65
2023/04/29 00:17:59;0.00;0.00;0.62;0.00;0.00;0.62;3.27;2.97;;;25.20;22.40;;;;;;2260168;61;20416;-65
2023/04/29 00:20:43;0.00;0.00;0.62;0.00;0.00;0.62;3.73;3.23;;;25.20;22.40;;;;;;2259936;61;20377;-64
2023/04/29 00:23:28;0.00;0.00;0.62;0.00;0.00;0.62;3.23;2.90;;;25.20;22.40;;;;;;2260323;61;20829;-65
2023/04/29 00:26:14;0.00;0.00;0.62;0.00;0.00;0.62;3.07;2.70;;;25.10;22.30;;;;;;2259790;61;20931;-65
2023/04/29 00:29:03;0.00;0.00;0.62;0.00;0.00;0.62;3.27;2.93;;;25.20;22.40;;;;;;2260095;61;20861;-63
2023/04/29 00:31:49;0.00;0.00;0.62;0.00;0.00;0.62;3.07;2.77;;;25.10;22.30;;;;;;2260201;61;20894;-64
2023/04/29 00:34:33;0.00;0.00;0.62;0.00;0.00;0.62;3.10;2.60;;;25.10;22.30;;;;;;2259369;61;20523;-65
2023/04/29 00:37:18;0.00;0.00;0.62;0.00;0.00;0.62;3.10;2.80;;;25.10;22.30;;;;;;2260081;61;20416;-65
2023/04/29 00:40:05;0.00;0.00;0.62;0.00;0.00;0.62;3.20;2.40;;;25.10;22.30;;;;;;2259838;61;20485;-65
2023/04/29 00:42:51;0.00;0.00;0.62;0.00;0.00;0.62;3.23;2.93;;;25.10;22.30;;;;;;2259859;61;20776;-65
2023/04/29 00:45:36;0.00;0.00;0.62;0.00;0.00;0.62;4.13;3.10;;;25.10;22.30;;;;;;2260504;61;20361;-64
2023/04/29 00:48:21;0.00;0.00;0.62;0.00;0.00;0.62;2.97;2.67;;;25.10;22.30;;;;;;2259351;61;20372;-63
2023/04/29 00:51:06;0.00;0.00;0.62;0.00;0.00;0.62;3.60;3.00;;;25.10;22.30;;;;;;2259762;61;20689;-64
2023/04/29 00:53:51;0.00;0.00;0.62;0.00;0.00;0.62;3.17;2.60;;;25.10;22.30;;;;;;2259902;61;20370;-64
2023/04/29 00:56:38;0.00;0.00;0.62;0.00;0.00;0.62;2.83;2.40;;;25.10;22.30;;;;;;2259754;61;20368;-64
2023/04/29 00:59:30;0.00;0.00;0.62;0.00;0.00;0.62;2.80;2.23;;;25.10;22.30;;;;;;2259988;61;20373;-63
2023/04/29 01:02:16;0.00;0.00;0.62;0.00;0.00;0.62;3.30;3.00;;;25.10;22.30;;;;;;2256617;61;20373;-64
2023/04/29 01:05:01;0.00;0.00;0.62;0.00;0.00;0.62;2.80;2.50;;;25.10;22.30;;;;;;2260051;61;20391;-62
2023/04/29 01:08:08;0.00;0.00;0.62;0.00;0.00;0.62;3.40;2.80;;;25.10;22.30;;;;;;2259925;61;20381;-64
2023/04/29 01:10:59;0.00;0.00;0.62;0.00;0.00;0.62;3.37;2.80;;;25.10;22.30;;;;;;2258876;61;20432;-63
2023/04/29 01:13:53;0.00;0.00;0.62;0.00;0.00;0.62;3.13;2.60;;;25.10;22.30;;;;;;2257224;61;20361;-64
2023/04/29 01:16:48;0.00;0.00;0.62;0.00;0.00;0.62;3.10;2.37;;;25.10;22.30;;;;;;2259932;61;20796;-64
2023/04/29 01:19:45;0.00;0.00;0.62;0.00;0.00;0.62;2.80;2.40;;;25.10;22.30;;;;;;2259407;61;20407;-64
2023/04/29 01:22:30;0.00;0.00;0.62;0.00;0.00;0.62;3.60;2.80;;;25.10;22.30;;;;;;2260260;61;20821;-63
2023/04/29 01:25:16;0.00;0.00;0.62;0.00;0.00;0.62;3.47;2.60;;;25.10;22.30;;;;;;2259342;61;20531;-64
2023/04/29 01:28:41;0.00;0.00;0.62;0.00;0.00;0.62;3.17;2.40;;;25.10;22.30;;;;;;2260116;61;20360;-64
2023/04/29 01:31:35;0.00;0.00;0.62;0.00;0.00;0.62;2.47;2.10;;;25.10;22.30;;;;;;2259778;61;20400;-64
2023/04/29 01:34:30;0.00;0.00;0.62;0.00;0.00;0.62;2.60;2.00;;;25.10;22.30;;;;;;2259349;61;20406;-63
2023/04/29 01:37:24;0.00;0.00;0.62;0.00;0.00;0.62;2.73;2.10;;;25.10;22.30;;;;;;2259538;61;20404;-64
2023/04/29 01:40:16;0.00;0.00;0.62;0.00;0.00;0.62;2.87;2.50;;;25.10;22.30;;;;;;2258789;61;21775;-65
2023/04/29 01:43:14;0.00;0.00;0.62;0.00;0.00;0.62;3.10;2.63;;;25.10;22.30;;;;;;2259859;61;20383;-65
2023/04/29 01:46:05;0.00;0.00;0.62;0.00;0.00;0.62;3.27;2.40;;;25.10;22.30;;;;;;2259821;61;20392;-64
2023/04/29 01:48:53;0.00;0.00;0.62;0.00;0.00;0.62;3.30;2.50;;;25.10;22.30;;;;;;2259075;61;20898;-65
2023/04/29 01:51:38;0.00;0.00;0.62;0.00;0.00;0.62;3.13;2.60;;;25.10;22.30;;;;;;2259734;61;20442;-65
2023/04/29 01:54:23;0.00;0.00;0.62;0.00;0.00;0.62;2.60;2.20;;;25.10;22.30;;;;;;2259344;61;20980;-64
2023/04/29 01:57:08;0.00;0.00;0.62;0.00;0.00;0.62;3.27;2.43;;;25.10;22.30;;;;;;2259374;61;20365;-63
2023/04/29 02:00:07;0.00;0.00;0.62;0.00;0.00;0.62;2.40;1.97;;;25.10;22.30;;;;;;2259323;61;20389;-65
2023/04/29 02:02:58;0.00;0.00;0.62;0.00;0.00;0.62;2.67;2.13;;;25.10;22.30;;;;;;2259323;61;20391;-64
2023/04/29 02:05:53;0.00;0.00;0.62;0.00;0.00;0.62;2.30;1.80;;;25.10;22.30;;;;;;2259489;61;20353;-64
2023/04/29 02:08:37;0.00;0.00;0.62;0.00;0.00;0.62;3.00;2.53;;;25.10;22.30;;;;;;2256896;61;21005;-64
2023/04/29 02:11:22;0.00;0.00;0.62;0.00;0.00;0.62;2.10;1.80;;;25.10;22.30;;;;;;2259291;61;20425;-64
2023/04/29 02:14:07;0.00;0.00;0.62;0.00;0.00;0.62;3.17;2.03;;;25.10;22.30;;;;;;2259543;61;20411;-64
2023/04/29 02:16:53;0.00;0.00;0.62;0.00;0.00;0.62;2.80;2.27;;;25.10;22.30;;;;;;2259249;61;20365;-64
2023/04/29 02:19:38;0.00;0.00;0.62;0.00;0.00;0.62;2.33;1.73;;;25.10;22.30;;;;;;2259115;61;20910;-64
2023/04/29 02:22:23;0.00;0.00;0.62;0.00;0.00;0.62;1.87;1.50;;;25.10;22.30;;;;;;2260001;61;20408;-64
2023/04/29 02:25:10;0.00;0.00;0.62;0.00;0.00;0.62;3.23;2.60;;;25.10;22.30;;;;;;2258562;61;20890;-64
2023/04/29 02:27:55;0.00;0.00;0.62;0.00;0.00;0.62;2.50;1.90;;;25.10;22.30;;;;;;2259483;61;20401;-64
2023/04/29 02:30:39;0.00;0.00;0.62;0.00;0.00;0.62;2.40;1.90;;;25.10;22.30;;;;;;2259182;61;20479;-65
2023/04/29 02:33:25;0.00;0.00;0.62;0.00;0.00;0.62;2.40;1.57;;;25.10;22.30;;;;;;2259117;61;20407;-64
2023/04/29 02:36:10;0.00;0.00;0.62;0.00;0.00;0.62;2.40;2.00;;;25.10;22.30;;;;;;2259994;61;20392;-64
2023/04/29 02:38:55;0.00;0.00;0.62;0.00;0.00;0.62;2.40;1.73;;;25.00;22.30;;;;;;2259651;61;20395;-63
2023/04/29 02:41:41;0.00;0.00;0.62;0.00;0.00;0.62;2.13;1.93;;;25.00;22.30;;;;;;2259263;61;20365;-64
2023/04/29 02:44:25;0.00;0.00;0.62;0.00;0.00;0.62;2.37;2.10;;;25.10;22.30;;;;;;2259710;61;20427;-65
2023/04/29 02:47:11;0.00;0.00;0.62;0.00;0.00;0.62;2.30;1.70;;;25.00;22.30;;;;;;2259493;61;21026;-64
2023/04/29 02:49:58;0.00;0.00;0.62;0.00;0.00;0.62;2.30;1.80;;;25.10;22.30;;;;;;2259301;61;20396;-64
2023/04/29 02:52:43;0.00;0.00;0.62;0.00;0.00;0.62;2.40;1.90;;;25.10;22.30;;;;;;2259936;61;20955;-64
2023/04/29 02:55:27;0.00;0.00;0.62;0.00;0.00;0.62;2.10;1.57;;;25.00;22.30;;;;;;2259512;61;20425;-65
2023/04/29 02:58:17;0.00;0.00;0.62;0.00;0.00;0.62;2.57;2.03;;;25.10;22.30;;;;;;2259731;61;20778;-64
2023/04/29 03:01:02;0.00;0.00;0.62;0.00;0.00;0.62;2.13;1.70;;;25.10;22.30;;;;;;2258990;61;20384;-65
2023/04/29 03:03:48;0.00;0.00;0.62;0.00;0.00;0.62;1.90;1.50;;;25.10;22.30;;;;;;2260082;61;20936;-64
2023/04/29 03:06:35;0.00;0.00;0.62;0.00;0.00;0.62;1.90;1.70;;;25.00;22.30;;;;;;2259902;61;20895;-64
2023/04/29 03:09:20;0.00;0.00;0.62;0.00;0.00;0.62;2.13;1.80;;;25.10;22.30;;;;;;2255663;61;20380;-65
2023/04/29 03:12:06;0.00;0.00;0.62;0.00;0.00;0.62;1.97;1.67;;;25.00;22.30;;;;;;2260465;61;20364;-66
2023/04/29 03:14:50;0.00;0.00;0.62;0.00;0.00;0.62;2.10;1.57;;;25.00;22.30;;;;;;2260598;61;20408;-65
2023/04/29 03:17:36;0.00;0.00;0.62;0.00;0.00;0.62;2.83;1.50;;;25.00;22.30;;;;;;2259742;61;20780;-64
2023/04/29 03:20:20;0.00;0.00;0.62;0.00;0.00;0.62;2.40;1.83;;;25.00;22.30;;;;;;2260039;61;20435;-64
2023/04/29 03:23:06;0.00;0.00;0.62;0.00;0.00;0.62;2.13;1.60;;;25.00;22.30;;;;;;2259740;61;20396;-64
2023/04/29 03:25:51;0.00;0.00;0.62;0.00;0.00;0.62;1.93;1.63;;;25.00;22.30;;;;;;2260783;61;20396;-65
2023/04/29 03:28:36;0.00;0.00;0.62;0.00;0.00;0.62;1.93;1.50;;;25.00;22.30;;;;;;2260562;61;20404;-65
2023/04/29 03:31:22;0.00;0.00;0.62;0.00;0.00;0.62;2.80;2.10;;;25.00;22.30;;;;;;2260011;61;20468;-64
2023/04/29 03:34:07;0.00;0.00;0.62;0.00;0.00;0.62;2.07;1.53;;;25.00;22.30;;;;;;2260479;61;20357;-65
2023/04/29 03:36:56;0.00;0.00;0.62;0.00;0.00;0.62;2.00;1.60;;;25.00;22.30;;;;;;2260308;61;20400;-64
2023/04/29 03:39:42;0.00;0.00;0.62;0.00;0.00;0.62;3.30;1.63;;;25.00;22.30;;;;;;2259629;61;20929;-64
2023/04/29 03:42:27;0.00;0.00;0.62;0.00;0.00;0.62;1.57;1.40;;;25.00;22.30;;;;;;2260292;61;20403;-65
2023/04/29 03:45:13;0.00;0.00;0.62;0.00;0.00;0.62;2.30;1.80;;;25.00;22.30;;;;;;2259665;61;20372;-64
2023/04/29 03:47:57;0.00;0.00;0.62;0.00;0.00;0.62;2.00;1.40;;;25.00;22.30;;;;;;2260185;61;20369;-64
2023/04/29 03:50:43;0.00;0.00;0.62;0.00;0.00;0.62;1.90;1.50;;;25.00;22.30;;;;;;2260219;61;20392;-64
2023/04/29 03:53:28;0.00;0.00;0.62;0.00;0.00;0.62;2.20;1.60;;;25.00;22.80;;;;;;2260253;61;20427;-65
2023/04/29 03:56:15;0.00;0.00;0.62;0.00;0.00;0.62;2.10;1.50;;;25.00;22.80;;;;;;2260741;61;20411;-65
2023/04/29 03:59:00;0.00;0.00;0.62;0.00;0.00;0.62;2.07;1.47;;;25.00;22.30;;;;;;2259962;61;20369;-63
2023/04/29 04:01:44;0.00;0.00;0.62;0.00;0.00;0.62;2.13;1.50;;;25.00;22.30;;;;;;2259949;61;20424;-64
2023/04/29 04:04:29;0.00;0.00;0.62;0.00;0.00;0.62;2.03;1.30;;;25.00;22.30;;;;;;2260324;61;20357;-64
2023/04/29 04:07:14;0.00;0.00;0.62;0.00;0.00;0.62;2.77;1.73;;;25.00;22.30;;;;;;2260058;61;20435;-64
2023/04/29 04:10:21;0.00;0.00;0.62;0.00;0.00;0.62;1.97;1.70;;;25.00;22.30;;;;;;2260404;61;20380;-64
2023/04/29 04:13:07;0.00;0.00;0.62;0.00;0.00;0.62;1.90;1.50;;;25.00;22.30;;;;;;2260272;61;20397;-65
2023/04/29 04:15:52;0.00;0.00;0.62;0.00;0.00;0.62;2.20;1.40;;;25.00;22.30;;;;;;2260209;61;20400;-64
2023/04/29 04:18:37;0.00;0.00;0.62;0.00;0.00;0.62;2.33;1.67;;;25.00;22.30;;;;;;2260577;61;20392;-64
2023/04/29 04:21:23;0.00;0.00;0.62;0.00;0.00;0.62;2.00;1.50;;;25.00;22.30;;;;;;2260027;61;20360;-64
2023/04/29 04:24:17;0.00;0.00;0.62;0.00;0.00;0.62;2.70;1.83;;;25.00;22.30;;;;;;2259904;61;20441;-64
2023/04/29 04:27:02;0.00;0.00;0.62;0.00;0.00;0.62;2.13;1.40;;;25.00;22.30;;;;;;2260428;61;20831;-64
2023/04/29 04:29:54;0.00;0.00;0.62;0.00;0.00;0.62;2.27;1.83;;;25.00;22.30;;;;;;2259616;61;20512;-65
2023/04/29 04:32:44;0.00;0.00;0.62;0.00;0.00;0.62;2.03;1.70;;;25.00;22.30;;;;;;2259771;61;20365;-64
2023/04/29 04:35:29;0.00;0.00;0.62;0.00;0.00;0.62;2.23;1.63;;;25.00;22.30;;;;;;2260299;61;20401;-64
2023/04/29 04:38:14;0.00;0.00;0.62;0.00;0.00;0.62;2.37;1.80;;;25.00;22.30;;;;;;2260023;61;20912;-63
2023/04/29 04:40:59;0.00;0.00;0.62;0.00;0.00;0.62;2.27;2.03;;;25.00;22.30;;;;;;2260181;61;20408;-64
2023/04/29 04:43:53;0.00;0.00;0.62;0.00;0.00;0.62;2.10;1.40;;;25.00;22.30;;;;;;2260464;61;20360;-64
2023/04/29 04:46:50;0.00;0.00;0.62;0.00;0.00;0.62;2.50;1.60;;;25.00;22.30;;;;;;2260526;61;20357;-65
2023/04/29 04:49:51;0.00;0.00;0.62;0.00;0.00;0.62;2.03;1.67;;;25.00;22.30;;;;;;2257766;61;20827;-63
2023/04/29 04:52:36;0.00;0.00;0.62;0.00;0.00;0.62;2.30;1.93;;;25.00;22.30;;;;;;2259841;61;20384;-65
2023/04/29 04:55:33;0.00;0.00;0.62;0.00;0.00;0.62;2.13;1.57;;;25.00;22.30;;;;;;2260125;61;20396;-64
2023/04/29 04:58:18;0.00;0.00;0.62;0.00;0.00;0.62;2.40;2.07;;;25.00;22.30;;;;;;2260422;61;20415;-64
2023/04/29 05:01:04;0.00;0.00;0.62;0.00;0.00;0.62;1.90;1.50;;;25.00;22.30;;;;;;2259334;61;20381;-65
2023/04/29 05:03:50;0.00;0.00;0.62;0.00;0.00;0.62;2.30;1.60;;;25.00;22.30;;;;;;2260076;61;20411;-63
2023/04/29 05:06:36;0.00;0.00;0.62;0.00;0.00;0.62;2.27;1.83;;;25.00;22.30;;;;;;2259672;61;20461;-63
2023/04/29 05:09:21;0.00;0.00;0.62;0.00;0.00;0.62;1.80;1.60;;;25.00;22.30;;;;;;2259593;61;20373;-63
2023/04/29 05:12:06;0.00;0.00;0.62;0.00;0.00;0.62;2.63;1.90;;;25.00;22.30;;;;;;2260458;61;20373;-64
2023/04/29 05:14:52;0.00;0.00;0.62;0.00;0.00;0.62;2.43;2.07;;;24.90;22.20;;;;;;2259537;61;20980;-65
2023/04/29 05:17:37;0.00;0.00;0.62;0.00;0.00;0.62;1.90;1.57;;;25.00;22.30;;;;;;2259912;61;20400;-65
2023/04/29 05:20:23;0.00;0.00;0.62;0.00;0.00;0.62;2.00;1.50;;;24.90;22.20;;;;;;2259777;61;20389;-65
2023/04/29 05:23:09;0.00;0.00;0.62;0.00;0.00;0.62;2.30;1.70;;;25.00;22.30;;;;;;2259592;61;20415;-64
2023/04/29 05:25:57;0.00;0.00;0.62;0.00;0.00;0.62;3.03;2.30;;;25.00;22.30;;;;;;2260241;61;20407;-63
2023/04/29 05:28:43;0.00;0.00;0.62;0.00;0.00;0.62;1.70;1.57;;;25.00;22.30;;;;;;2259662;61;20365;-64
2023/04/29 05:31:29;0.00;0.00;0.62;0.00;0.00;0.62;3.67;2.50;;;24.90;22.20;;;;;;2259956;61;20365;-64
2023/04/29 05:34:15;0.00;0.00;0.62;0.00;0.00;0.62;2.63;2.17;;;25.00;22.30;;;;;;2259709;61;20771;-65
2023/04/29 05:37:02;0.00;0.00;0.62;0.00;0.00;0.62;2.30;1.90;;;25.00;22.30;;;;;;2259294;61;20364;-64
2023/04/29 05:39:47;0.00;0.00;0.62;0.00;0.00;0.62;1.90;1.50;;;25.00;22.30;;;;;;2259769;61;20527;-65
2023/04/29 05:42:34;0.00;0.00;0.62;0.00;0.00;0.62;2.47;2.07;;;25.00;22.30;;;;;;2260196;61;20407;-65
2023/04/29 05:45:19;0.00;0.00;0.62;0.00;0.00;0.62;2.60;2.07;;;25.00;22.30;;;;;;2259241;61;20411;-64
2023/04/29 05:48:07;0.00;0.00;0.62;0.00;0.00;0.62;2.20;2.00;;;24.90;22.20;;;;;;2260510;61;20388;-64
2023/04/29 05:50:53;0.00;0.00;0.62;0.00;0.00;0.62;2.10;1.87;;;25.00;22.30;;;;;;2259624;61;20393;-64
2023/04/29 05:53:39;0.00;0.00;0.62;0.00;0.00;0.62;2.00;1.50;;;25.00;22.30;;;;;;2259603;61;20380;-65
2023/04/29 05:56:24;0.00;0.00;0.62;0.00;0.00;0.62;2.63;2.20;;;24.90;22.20;;;;;;2259908;61;20434;-65
2023/04/29 05:59:09;0.00;0.00;0.62;0.00;0.00;0.62;2.43;2.07;;;24.90;22.20;;;;;;2259633;61;20877;-65
2023/04/29 06:01:55;0.00;0.00;0.62;0.00;0.00;0.62;1.80;1.50;;;24.90;22.20;;;;;;2260061;61;20356;-64
2023/04/29 06:04:41;0.00;0.00;0.62;0.00;0.00;0.62;2.20;2.00;;;25.00;22.30;;;;;;2260062;61;20365;-65
2023/04/29 06:07:45;0.00;0.00;0.62;0.00;0.00;0.62;2.30;1.83;;;24.90;22.20;;;;;;2259878;61;20427;-63
2023/04/29 06:10:53;0.00;0.00;0.62;0.00;0.00;0.62;2.10;1.80;;;24.90;22.20;;;;;;2259677;61;20376;-64
2023/04/29 06:13:38;0.00;0.00;0.62;0.00;0.00;0.62;2.43;2.20;;;24.90;22.20;;;;;;2259299;61;20377;-65
2023/04/29 06:16:23;0.00;0.00;0.62;0.00;0.00;0.62;3.20;2.13;;;24.90;22.20;;;;;;2260019;61;20388;-64
2023/04/29 06:19:08;0.00;0.00;0.62;0.00;0.00;0.62;2.17;1.83;;;24.90;22.20;;;;;;2259860;61;20357;-65
2023/04/29 06:21:52;0.00;0.00;0.62;0.00;0.00;0.62;2.00;1.77;;;24.90;22.20;;;;;;2259659;61;20357;-65
2023/04/29 06:24:37;0.00;0.00;0.62;0.00;0.00;0.62;2.10;1.87;;;24.90;22.20;;;;;;2259943;61;20383;-66
2023/04/29 06:27:24;0.00;0.00;0.62;0.00;0.00;0.62;2.23;1.80;;;24.90;22.20;;;;;;2259953;61;20781;-65
2023/04/29 06:30:10;0.00;0.00;0.62;0.00;0.00;0.62;2.00;1.80;;;24.90;22.20;;;;;;2259382;61;20417;-66
2023/04/29 06:32:56;0.00;0.00;0.62;0.00;0.00;0.62;2.43;1.83;;;24.90;22.20;;;;;;2260119;61;20433;-65
2023/04/29 06:35:42;0.00;0.00;0.62;0.00;0.00;0.62;2.33;1.90;;;24.90;22.20;;;;;;2259760;61;20433;-66
2023/04/29 06:38:52;0.00;0.00;0.62;0.00;0.00;0.62;2.30;1.90;;;24.90;22.20;;;;;;2259972;61;20404;-66
2023/04/29 06:41:50;0.00;0.00;0.62;0.00;0.00;0.62;2.40;2.10;;;24.90;22.20;;;;;;2260382;61;20346;-66
2023/04/29 06:44:59;0.00;0.00;0.62;0.00;0.00;0.62;2.20;2.00;;;24.90;22.20;;;;;;2259890;61;20396;-65
2023/04/29 06:47:56;0.00;0.00;0.62;0.00;0.00;0.62;2.40;2.20;;;24.90;22.20;;;;;;2260686;61;20409;-65
2023/04/29 06:51:04;0.00;0.00;0.62;0.00;0.00;0.62;3.07;2.77;;;24.80;22.20;;;;;;2260638;61;20384;-68
2023/04/29 06:53:50;0.00;0.00;0.62;0.00;0.00;0.62;2.40;2.10;;;24.90;22.20;;;;;;2260591;61;20348;-65
2023/04/29 06:56:37;0.00;0.00;0.62;0.00;0.00;0.62;3.20;2.60;;;24.90;22.20;;;;;;2260467;61;20373;-65
2023/04/29 06:59:22;0.00;0.00;0.62;0.00;0.00;0.62;2.90;2.30;;;24.90;22.20;;;;;;2260768;61;20377;-65
2023/04/29 07:02:09;0.00;0.00;0.62;0.00;0.00;0.62;3.27;2.87;;;24.90;22.20;;;;;;2260701;61;20475;-65
2023/04/29 07:04:54;0.00;0.00;0.62;0.00;0.00;0.62;3.30;2.80;;;24.90;22.20;;;;;;2260694;61;20806;-65
2023/04/29 07:07:38;0.00;0.00;0.62;0.00;0.00;0.62;3.50;2.67;;;24.80;22.20;;;;;;2260450;61;20368;-65
2023/04/29 07:10:25;0.00;0.00;0.62;0.00;0.00;0.62;3.30;3.00;;;24.90;22.20;;;;;;2260343;61;20447;-64
2023/04/29 07:13:12;0.00;0.00;0.62;0.00;0.00;0.62;3.43;3.07;;;24.80;22.20;;;;;;2260284;61;20384;-65
2023/04/29 07:15:56;0.00;0.00;0.62;0.00;0.00;0.62;3.73;3.37;;;24.90;22.30;;;;;;2260293;61;20372;-65
2023/04/29 07:18:42;0.00;0.00;0.62;0.00;0.00;0.62;4.80;3.60;;;24.90;22.30;;;;;;2260766;61;20404;-64
2023/04/29 07:21:27;0.00;0.00;0.62;0.00;0.00;0.62;3.93;3.50;;;24.90;22.30;;;;;;2260557;61;20387;-67
2023/04/29 07:24:12;0.00;0.00;0.62;0.00;0.00;0.62;3.43;2.90;;;24.80;22.20;;;;;;2257662;61;20826;-65
2023/04/29 07:26:57;0.00;0.00;0.62;0.00;0.00;0.62;4.60;3.70;;;24.90;22.30;;;;;;2260770;61;20419;-66
2023/04/29 07:29:41;0.00;0.00;0.62;0.00;0.00;0.62;3.60;3.20;;;24.90;22.30;;;;;;2260338;61;20381;-66
2023/04/29 07:32:26;0.00;0.00;0.62;0.00;0.00;0.62;5.10;3.60;;;24.90;22.30;;;;;;2260494;61;20433;-64
2023/04/29 07:35:12;0.00;0.00;0.62;0.00;0.00;0.62;3.90;3.33;;;24.90;22.30;;;;;;2260138;61;20443;-64
2023/04/29 07:37:57;0.00;0.00;0.62;0.00;0.00;0.62;4.03;3.63;;;24.90;22.40;;;;;;2260844;61;20373;-64
2023/04/29 07:40:43;0.00;0.00;0.62;0.00;0.00;0.62;3.63;2.93;;;24.90;22.40;;;;;;2260044;61;20447;-65
2023/04/29 07:43:28;0.00;0.00;0.62;0.00;0.00;0.62;4.20;3.60;;;24.90;22.40;;;;;;2259793;61;20427;-65
2023/04/29 07:46:13;0.00;0.00;0.62;0.00;0.00;0.62;3.90;3.30;;;24.90;22.40;;;;;;2260387;61;20384;-64
2023/04/29 07:48:58;0.00;0.00;0.62;0.00;0.00;0.62;4.20;3.10;;;24.80;22.30;;;;;;2259848;61;20392;-66
2023/04/29 07:51:44;0.00;0.00;0.62;0.00;0.00;0.62;3.73;3.37;;;24.80;22.30;;;;;;2260150;61;20364;-66
2023/04/29 07:54:28;0.00;0.00;0.62;0.00;0.00;0.62;3.97;3.57;;;24.90;22.40;;;;;;2260755;61;20812;-65
2023/04/29 07:57:14;0.00;0.00;0.62;0.00;0.00;0.62;3.67;3.37;;;24.90;22.40;;;;;;2259713;61;20411;-65
2023/04/29 07:59:59;0.00;0.00;0.62;0.00;0.00;0.62;3.80;3.43;;;24.90;22.40;;;;;;2259977;61;20426;-66
2023/04/29 08:02:44;0.00;0.00;0.62;0.00;0.00;0.62;4.80;3.50;;;24.90;22.90;;;;;;2260282;61;20357;-65
2023/04/29 08:05:31;0.00;0.00;0.62;0.00;0.00;0.62;4.80;3.70;;;24.90;22.40;;;;;;2259611;61;20962;-65
2023/04/29 08:08:18;0.00;0.00;0.62;0.00;0.00;0.62;3.83;3.53;;;24.90;22.40;;;;;;2260467;61;20356;-64
2023/04/29 08:11:02;0.00;0.00;0.62;0.00;0.00;0.62;3.43;3.13;;;24.90;22.40;;;;;;2260215;61;21048;-64
2023/04/29 08:13:48;0.00;0.00;0.62;0.00;0.00;0.62;4.23;3.80;;;24.90;22.40;;;;;;2259661;61;20831;-65
2023/04/29 08:16:32;0.00;0.00;0.62;0.00;0.00;0.62;4.70;4.30;;;24.90;22.40;;;;;;2260187;61;20912;-65
2023/04/29 08:19:17;0.00;0.00;0.62;0.00;0.00;0.62;4.13;3.70;;;24.90;22.40;;;;;;2259536;61;20580;-64
2023/04/29 08:22:03;0.00;0.00;0.62;0.00;0.00;0.62;4.87;4.10;;;24.90;22.40;;;;;;2260437;61;20771;-65
2023/04/29 08:24:49;0.00;0.00;0.62;0.00;0.00;0.62;4.40;4.00;;;24.90;22.40;;;;;;2260700;61;20382;-65
2023/04/29 08:27:34;0.00;0.00;0.62;0.00;0.00;0.62;4.70;4.20;;;24.90;22.40;;;;;;2260108;61;20369;-64
2023/04/29 08:30:19;0.00;0.00;0.62;0.00;0.00;0.62;4.77;4.00;;;24.90;22.40;;;;;;2260514;61;20520;-64
2023/04/29 08:33:04;0.00;0.00;0.62;0.00;0.00;0.62;5.97;4.27;;;24.90;22.40;;;;;;2260606;61;20776;-64
2023/04/29 08:35:57;0.00;0.00;0.62;0.00;0.00;0.62;4.30;3.63;;;24.90;22.40;;;;;;2260106;61;20865;-64
2023/04/29 08:38:42;0.00;0.00;0.62;0.00;0.00;0.62;3.83;3.40;;;24.90;22.50;;;;;;2260858;61;20364;-65
2023/04/29 08:41:29;0.00;0.00;0.62;0.00;0.00;0.62;4.13;3.63;;;24.90;22.50;;;;;;2260481;61;20361;-65
2023/04/29 08:44:16;0.00;0.00;0.62;0.00;0.00;0.62;4.00;3.60;;;25.00;22.50;;;;;;2260715;61;20393;-64
2023/04/29 08:47:01;0.00;0.00;0.62;0.00;0.00;0.62;3.87;3.40;;;25.00;22.50;;;;;;2260227;61;20399;-65
2023/04/29 08:49:46;0.00;0.00;0.62;0.00;0.00;0.62;3.80;3.40;;;25.00;22.50;;;;;;2259682;61;20376;-64
2023/04/29 08:52:32;0.00;0.00;0.62;0.00;0.00;0.62;4.57;4.07;;;25.00;22.50;;;;;;2260750;61;20397;-64
2023/04/29 08:55:17;0.00;0.00;0.62;0.00;0.00;0.62;3.97;3.47;;;25.00;22.50;;;;;;2260408;61;20465;-64
2023/04/29 08:58:04;0.00;0.00;0.62;0.00;0.00;0.62;3.50;3.20;;;25.00;22.50;;;;;;2259973;61;20453;-64
2023/04/29 09:00:50;0.00;0.00;0.62;0.00;0.00;0.62;3.87;3.30;;;25.00;22.50;;;;;;2260292;61;20381;-64
2023/04/29 09:03:48;0.00;0.00;0.62;0.00;0.00;0.62;3.43;3.03;;;25.00;22.50;;;;;;2260258;61;20782;-64
2023/04/29 09:06:33;0.00;0.00;0.62;0.00;0.00;0.62;3.60;3.00;;;25.00;22.50;;;;;;2260354;61;20447;-64
2023/04/29 09:09:19;0.00;0.00;0.62;0.00;0.00;0.62;3.60;3.17;;;25.00;22.50;;;;;;2260244;61;20365;-65
2023/04/29 09:12:04;0.00;0.00;0.62;0.00;0.00;0.62;4.53;3.83;;;25.00;22.50;;;;;;2260055;61;20364;-64
2023/04/29 09:14:51;0.00;0.00;0.62;0.00;0.00;0.62;3.87;3.50;;;25.00;22.50;;;;;;2260313;61;20817;-64
2023/04/29 09:17:41;0.00;0.00;0.62;0.00;0.00;0.62;3.90;3.50;;;25.00;22.50;;;;;;2260732;61;20430;-65
2023/04/29 09:20:28;0.00;0.00;0.62;0.00;0.00;0.62;3.53;3.00;;;25.00;22.50;;;;;;2259854;61;20384;-63
2023/04/29 09:23:13;0.00;0.00;0.62;0.00;0.00;0.62;4.50;3.80;;;25.00;22.50;;;;;;2260428;61;20361;-63
2023/04/29 09:25:58;0.00;0.00;0.62;0.00;0.00;0.62;4.03;3.30;;;25.00;22.50;;;;;;2260393;61;20364;-65
2023/04/29 09:28:43;0.00;0.00;0.62;0.00;0.00;0.62;3.90;3.40;;;25.00;22.50;;;;;;2260133;61;20685;-65
2023/04/29 09:31:30;0.00;0.00;0.62;0.00;0.00;0.62;4.73;3.83;;;25.00;22.50;;;;;;2258956;61;20370;-65
2023/04/29 09:34:15;0.00;0.00;0.62;0.00;0.00;0.62;4.27;3.87;;;25.00;22.50;;;;;;2255354;61;20870;-65
2023/04/29 09:36:59;0.00;0.00;0.62;0.00;0.00;0.62;3.83;3.23;;;25.00;22.50;;;;;;2256484;61;20436;-65
2023/04/29 09:39:45;0.00;0.00;0.62;0.00;0.00;0.62;4.97;3.67;;;25.00;22.50;;;;;;2256309;61;20436;-64
2023/04/29 09:42:29;0.00;0.00;0.62;0.00;0.00;0.62;5.43;4.30;;;25.10;22.50;;;;;;2256122;61;20441;-64
2023/04/29 09:45:37;0.00;0.00;0.62;0.00;0.00;0.62;4.30;3.67;;;25.10;22.50;;;;;;2256695;61;20967;-63
2023/04/29 09:48:31;0.00;0.00;0.62;0.00;0.00;0.62;4.03;3.43;;;25.10;23.10;;;;;;2256160;61;20432;-64
2023/04/29 09:51:16;0.00;0.00;0.62;0.00;0.00;0.62;4.53;4.13;;;25.00;22.50;;;;;;2256227;61;20385;-63
2023/04/29 09:54:20;0.00;0.00;0.62;0.00;0.00;0.62;5.50;4.63;;;25.10;22.50;;;;;;2256921;61;20369;-63
2023/04/29 09:57:06;0.00;0.00;0.62;0.00;0.00;0.62;4.70;3.90;;;25.10;22.50;;;;;;2256017;61;20381;-65
2023/04/29 09:59:51;0.00;0.00;0.62;0.00;0.00;0.62;3.97;3.60;;;25.10;22.50;;;;;;2256649;61;20386;-63
2023/04/29 10:02:40;0.00;0.00;0.62;0.00;0.00;0.62;3.63;3.23;;;25.10;22.50;;;;;;2256517;61;20397;-62
2023/04/29 10:05:31;0.00;0.00;0.62;0.00;0.00;0.62;4.27;3.70;;;25.10;23.10;;;;;;2256444;61;20354;-63
2023/04/29 10:08:16;0.00;0.00;0.62;0.00;0.00;0.62;3.93;3.60;;;25.10;22.50;;;;;;2256980;61;20440;-62
2023/04/29 10:14:04;0.00;0.00;0.62;0.00;0.00;0.62;3.90;3.30;;;25.10;22.50;;;;;;2258248;61;20456;-62
2023/04/29 10:16:53;0.00;0.00;0.62;0.00;0.00;0.62;4.60;4.03;;;25.10;22.60;;;;;;2256795;61;20444;-65
2023/04/29 10:19:47;0.00;0.00;0.62;0.00;0.00;0.62;3.73;3.13;;;25.10;22.60;;;;;;2255166;61;20382;-64
2023/04/29 10:22:45;0.00;0.00;0.62;0.00;0.00;0.62;3.83;3.30;;;25.10;22.60;;;;;;2256478;61;20401;-65
2023/04/29 10:25:35;0.00;0.00;0.62;0.00;0.00;0.62;4.27;3.80;;;25.10;22.70;;;;;;2255995;61;20938;-65
2023/04/29 10:28:22;0.00;0.00;0.62;0.00;0.00;0.62;4.27;3.87;;;25.10;22.70;;;;;;2257135;61;20421;-62
2023/04/29 10:31:07;0.00;0.00;0.62;0.00;0.00;0.62;4.17;3.70;;;25.10;22.70;;;;;;2255834;61;20961;-66
2023/04/29 10:34:00;0.00;0.00;0.62;0.00;0.00;0.62;4.00;3.60;;;25.10;22.70;;;;;;2256124;61;20505;-63
2023/04/29 10:36:46;0.00;0.00;0.62;0.00;0.00;0.62;4.50;4.00;;;25.10;22.80;;;;;;2256539;61;20390;-64
2023/04/29 10:39:49;0.00;0.00;0.62;0.00;0.00;0.62;4.73;4.20;;;25.10;22.80;;;;;;2291216;40;21324;-64
2023/04/29 10:42:45;0.00;0.00;0.62;0.00;0.00;0.62;7.60;4.03;;;25.20;22.90;;;;;;2252121;61;20387;-64
2023/04/29 10:45:31;0.00;0.00;0.62;0.00;0.00;0.62;5.60;3.73;;;25.20;22.80;;;;;;2252484;61;20367;-63
2023/04/29 10:48:17;0.00;0.00;0.62;0.00;0.00;0.62;5.63;4.23;;;25.20;22.90;;;;;;2252267;61;20363;-64
2023/04/29 10:51:03;0.00;0.00;0.62;0.00;0.00;0.62;4.30;3.60;;;25.20;22.90;;;;;;2252036;61;21525;-65
2023/04/29 10:54:06;0.00;0.00;0.62;0.00;0.00;0.62;4.77;4.27;;;25.20;22.90;;;;;;2252008;61;20379;-65
2023/04/29 10:56:54;0.00;0.00;0.62;0.00;0.00;0.62;4.40;3.90;;;25.20;22.90;;;;;;2251938;61;20475;-65
2023/04/29 10:59:45;0.00;0.00;0.62;0.00;0.00;0.62;5.57;4.90;;;25.20;22.80;;;;;;2251694;61;20962;-64
2023/04/29 11:02:30;0.00;0.00;0.62;0.00;0.00;0.62;5.03;4.40;;;25.20;22.90;;;;;;2251815;61;20395;-65
2023/04/29 11:05:16;0.00;0.00;0.62;0.00;0.00;0.62;4.70;3.60;;;25.20;22.90;;;;;;2251980;61;20898;-65